You are listening to:
YSCB App/Dep/Center - Canberra, Australian Capital Territory, Australia

YSCB 140930Z AUTO 27011KT 9999 // NCD 18/05 Q1013 RF00.0/000.0

If stream does not start automatically press the play button